Terminal Aerodrome Forecast
Issued by NWS

Home | Current Version | Previous Version | Text Only | Print | Product List | Glossary On
Versions: 1 2 3 4 5 6 7 8 9 10 11 12 13 14 15 16 17 18 19 20 21 22 23 24
000
FTUS44 KBMX 261258 AAA
TAFEET
TAF AMD
KEET 261258Z 2613/2712 13005KT 5SM BR OVC005
     FM261500 16006KT P6SM -SHRA VCTS BKN012 OVC020CB
      TEMPO 2617/2619 2SM +TSRA SCT009 BKN015CB
     FM262200 20006KT P6SM VCSH SCT025 BKN050=

USA.gov is the U.S. government's official web portal to all federal, state and local government web resources and services.